createdAt,value
2023-02-11T00:00:17.697Z,91.60
2023-02-11T00:02:47.479Z,91.40
2023-02-11T00:05:15.191Z,91.30
2023-02-11T00:07:41.986Z,91.60
2023-02-11T00:10:09.128Z,91.40
2023-02-11T00:12:36.687Z,91.30
2023-02-11T00:15:03.877Z,91.60
2023-02-11T00:17:31.806Z,91.70
2023-02-11T00:19:58.818Z,91.60
2023-02-11T00:22:25.896Z,91.50
2023-02-11T00:24:52.733Z,91.50
2023-02-11T00:27:19.853Z,91.70
2023-02-11T00:29:46.740Z,91.70
2023-02-11T00:32:13.678Z,91.70
2023-02-11T00:34:40.489Z,91.70
2023-02-11T00:37:07.334Z,91.70
2023-02-11T00:39:34.138Z,91.70
2023-02-11T00:42:01.024Z,91.60
2023-02-11T00:44:28.003Z,91.50
2023-02-11T00:46:54.869Z,91.70
2023-02-11T00:49:21.701Z,91.60
2023-02-11T00:51:48.647Z,91.40
2023-02-11T00:54:15.448Z,91.90
2023-02-11T00:56:42.222Z,91.50
2023-02-11T00:59:09.306Z,91.70
2023-02-11T01:01:36.322Z,91.60
2023-02-11T01:04:03.240Z,91.80
2023-02-11T01:06:30.077Z,91.70
2023-02-11T01:08:56.871Z,91.80
2023-02-11T01:11:23.843Z,91.40
2023-02-11T01:13:50.698Z,91.70
2023-02-11T01:16:17.851Z,91.60
2023-02-11T01:18:44.746Z,91.50
2023-02-11T01:21:11.683Z,91.80
2023-02-11T01:23:38.674Z,91.60
2023-02-11T01:26:05.632Z,91.80
2023-02-11T01:28:33.089Z,91.70
2023-02-11T01:31:00.788Z,91.90
2023-02-11T01:33:27.957Z,92.00
2023-02-11T01:35:55.421Z,92.10
2023-02-11T01:38:23.860Z,91.90
2023-02-11T01:41:00.392Z,91.90
2023-02-11T01:43:28.728Z,91.90
2023-02-11T01:46:03.181Z,91.90
2023-02-11T01:48:32.740Z,91.70
2023-02-11T01:51:03.043Z,91.90
2023-02-11T01:53:48.910Z,92.00
2023-02-11T01:56:35.086Z,91.80
2023-02-11T01:59:05.920Z,91.90
2023-02-11T02:01:34.182Z,91.90
2023-02-11T02:04:02.890Z,92.00
2023-02-11T02:06:33.830Z,91.90
2023-02-11T02:09:03.715Z,92.10
2023-02-11T02:11:30.753Z,91.70
2023-02-11T02:13:57.619Z,92.00
2023-02-11T02:16:27.649Z,91.90
2023-02-11T02:18:58.704Z,92.10
2023-02-11T02:21:37.882Z,92.10
2023-02-11T02:24:14.353Z,92.10
2023-02-11T02:27:03.106Z,92.10
2023-02-11T02:29:51.678Z,92.00
2023-02-11T02:32:27.421Z,91.90
2023-02-11T02:34:59.066Z,92.20
2023-02-11T02:37:32.602Z,91.90
2023-02-11T02:40:03.067Z,92.10
2023-02-11T02:42:30.557Z,92.20
2023-02-11T02:44:58.210Z,92.10
2023-02-11T02:47:24.957Z,92.20
2023-02-11T02:49:51.700Z,91.90
2023-02-11T02:52:21.201Z,92.10
2023-02-11T02:54:47.934Z,92.20
2023-02-11T02:57:30.585Z,92.30
2023-02-11T02:59:58.091Z,92.20
2023-02-11T03:02:37.465Z,92.40
2023-02-11T03:05:04.292Z,92.10
2023-02-11T03:07:46.388Z,92.10
2023-02-11T03:10:19.665Z,91.90
2023-02-11T03:12:47.348Z,92.20
2023-02-11T03:15:14.983Z,92.10
2023-02-11T03:17:44.387Z,92.20
2023-02-11T03:20:13.249Z,91.90
2023-02-11T03:22:49.692Z,92.10
2023-02-11T03:25:16.931Z,92.20
2023-02-11T03:27:52.556Z,92.00
2023-02-11T03:30:19.310Z,91.90
2023-02-11T03:32:51.315Z,92.00
2023-02-11T03:35:21.680Z,91.90
2023-02-11T03:37:57.889Z,91.90
2023-02-11T03:40:29.826Z,92.00
2023-02-11T03:42:58.520Z,91.90
2023-02-11T03:45:26.588Z,92.10
2023-02-11T03:47:59.259Z,91.90
2023-02-11T03:50:27.009Z,92.40
2023-02-11T03:52:54.444Z,92.20
2023-02-11T03:55:23.283Z,92.20
2023-02-11T03:57:50.100Z,92.10
2023-02-11T04:00:16.986Z,92.10
2023-02-11T04:02:44.344Z,92.20
2023-02-11T04:05:12.858Z,92.30
2023-02-11T04:07:39.648Z,92.20
2023-02-11T04:10:06.705Z,92.30
2023-02-11T04:12:33.512Z,92.20
2023-02-11T04:15:00.247Z,92.20
2023-02-11T04:17:27.042Z,92.10
2023-02-11T04:19:53.844Z,92.10
2023-02-11T04:22:20.613Z,92.20
2023-02-11T04:24:47.461Z,92.00
2023-02-11T04:27:14.295Z,92.40
2023-02-11T04:29:41.143Z,92.30
2023-02-11T04:32:08.113Z,92.20
2023-02-11T04:34:34.993Z,92.10
2023-02-11T04:37:01.859Z,92.00
2023-02-11T04:39:28.708Z,92.30
2023-02-11T04:41:55.512Z,92.10
2023-02-11T04:44:22.506Z,92.30
2023-02-11T04:46:49.310Z,92.20
2023-02-11T04:49:16.554Z,92.00
2023-02-11T04:51:46.446Z,92.20
2023-02-11T04:54:14.437Z,92.10
2023-02-11T04:56:41.213Z,92.50
2023-02-11T04:59:08.116Z,92.20
2023-02-11T05:01:35.022Z,92.40
2023-02-11T05:04:01.836Z,92.20
2023-02-11T05:06:28.640Z,92.10
2023-02-11T05:08:55.672Z,92.40
2023-02-11T05:11:23.543Z,92.20
2023-02-11T05:13:50.409Z,92.20
2023-02-11T05:16:17.704Z,92.10
2023-02-11T05:18:45.015Z,92.50
2023-02-11T05:21:13.425Z,92.40
2023-02-11T05:23:40.453Z,92.40
2023-02-11T05:26:07.233Z,92.40
2023-02-11T05:28:34.271Z,92.50
2023-02-11T05:31:01.856Z,92.50
2023-02-11T05:33:28.793Z,92.40
2023-02-11T05:35:59.513Z,92.30
2023-02-11T05:38:26.922Z,92.10
2023-02-11T05:40:53.824Z,92.50
2023-02-11T05:43:21.096Z,92.60
2023-02-11T05:45:48.067Z,92.30
2023-02-11T05:48:15.165Z,92.40
2023-02-11T05:50:42.017Z,92.40
2023-02-11T05:53:09.167Z,92.50
2023-02-11T05:55:36.339Z,92.20
2023-02-11T05:58:03.166Z,92.30
2023-02-11T06:00:30.381Z,92.40
2023-02-11T06:02:57.243Z,92.20
2023-02-11T06:05:24.255Z,92.10
2023-02-11T06:07:51.260Z,92.50
2023-02-11T06:10:18.141Z,92.20
2023-02-11T06:12:45.104Z,92.40
2023-02-11T06:15:12.336Z,92.20
2023-02-11T06:17:39.163Z,92.40
2023-02-11T06:20:07.376Z,92.10
2023-02-11T06:22:35.179Z,92.20
2023-02-11T06:25:02.553Z,92.40
2023-02-11T06:27:29.921Z,92.30
2023-02-11T06:29:56.933Z,92.00
2023-02-11T06:32:43.007Z,92.20
2023-02-11T06:35:12.109Z,92.10
2023-02-11T06:37:39.946Z,92.10
2023-02-11T06:40:06.888Z,92.40
2023-02-11T06:42:34.779Z,92.10
2023-02-11T06:45:01.716Z,92.10
2023-02-11T06:47:28.638Z,92.00
2023-02-11T06:49:55.687Z,92.20
2023-02-11T06:52:22.608Z,92.10
2023-02-11T06:54:49.477Z,92.00
2023-02-11T06:57:16.329Z,92.20
2023-02-11T06:59:43.413Z,91.90
2023-02-11T07:02:10.644Z,92.10
2023-02-11T07:04:37.652Z,91.90
2023-02-11T07:07:04.610Z,92.30
2023-02-11T07:09:31.449Z,92.10
2023-02-11T07:11:58.272Z,92.20
2023-02-11T07:14:25.625Z,92.20
2023-02-11T07:16:52.553Z,92.20
2023-02-11T07:19:19.628Z,92.30
2023-02-11T07:21:46.506Z,92.40
2023-02-11T07:24:13.400Z,92.30
2023-02-11T07:26:40.268Z,92.30
2023-02-11T07:29:07.185Z,92.40
2023-02-11T07:31:34.270Z,92.40
2023-02-11T07:34:01.951Z,92.50
2023-02-11T07:36:30.040Z,92.20
2023-02-11T07:38:56.804Z,92.40
2023-02-11T07:41:24.684Z,92.30
2023-02-11T07:43:51.801Z,92.30
2023-02-11T07:46:22.999Z,92.30
2023-02-11T07:48:50.012Z,92.20
2023-02-11T07:51:19.674Z,92.20
2023-02-11T07:53:46.829Z,92.20
2023-02-11T07:56:14.923Z,92.20
2023-02-11T07:58:43.222Z,92.30
2023-02-11T08:01:12.220Z,92.30
2023-02-11T08:03:40.112Z,92.20
2023-02-11T08:06:08.544Z,92.40
2023-02-11T08:08:35.586Z,92.70
2023-02-11T08:11:09.221Z,92.40
2023-02-11T08:13:36.079Z,92.30
2023-02-11T08:16:05.183Z,92.50
2023-02-11T08:18:32.878Z,92.40
2023-02-11T08:21:06.633Z,92.30
2023-02-11T08:23:33.507Z,92.30
2023-02-11T08:26:07.490Z,92.30
2023-02-11T08:28:38.077Z,92.30
2023-02-11T08:31:06.254Z,92.30
2023-02-11T08:33:33.668Z,92.50
2023-02-11T08:36:00.665Z,92.40
2023-02-11T08:38:27.380Z,92.30
2023-02-11T08:40:54.132Z,92.30
2023-02-11T08:43:20.943Z,92.50
2023-02-11T08:45:47.770Z,92.40
2023-02-11T08:48:14.591Z,92.20
2023-02-11T08:50:41.411Z,92.40
2023-02-11T08:53:08.312Z,92.30
2023-02-11T08:55:35.132Z,92.30
2023-02-11T08:58:02.082Z,92.30
2023-02-11T09:00:29.009Z,92.40
2023-02-11T09:02:55.964Z,92.40
2023-02-11T09:05:23.212Z,92.50
2023-02-11T09:07:49.975Z,92.50
2023-02-11T09:10:16.956Z,92.50
2023-02-11T09:12:43.899Z,92.30
2023-02-11T09:15:10.809Z,92.30
2023-02-11T09:17:39.491Z,92.50
2023-02-11T09:20:08.100Z,92.40
2023-02-11T09:22:36.602Z,89.90
2023-02-11T09:25:03.540Z,86.80
2023-02-11T09:27:30.373Z,86.80
2023-02-11T09:29:57.211Z,85.90
2023-02-11T09:32:24.081Z,85.20
2023-02-11T09:34:51.020Z,85.00
2023-02-11T09:37:17.868Z,85.30
2023-02-11T09:39:46.248Z,84.60
2023-02-11T09:42:13.017Z,84.00
2023-02-11T09:44:39.881Z,83.30
2023-02-11T09:47:16.043Z,84.20
2023-02-11T09:49:48.849Z,84.20
2023-02-11T09:52:21.359Z,83.60
2023-02-11T09:54:48.108Z,84.20
2023-02-11T09:57:27.945Z,83.60
2023-02-11T09:59:56.202Z,84.90
2023-02-11T10:02:22.885Z,85.10
2023-02-11T10:05:19.086Z,85.00
2023-02-11T10:07:51.412Z,84.00
2023-02-11T10:10:38.435Z,83.80
2023-02-11T10:13:16.944Z,83.40
2023-02-11T10:16:02.283Z,82.60
2023-02-11T10:18:31.904Z,82.40
2023-02-11T10:21:04.911Z,82.30
2023-02-11T10:23:40.568Z,81.60
2023-02-11T10:26:15.291Z,81.80
2023-02-11T10:28:44.454Z,80.00
2023-02-11T10:31:28.954Z,81.70
2023-02-11T10:34:04.767Z,81.80
2023-02-11T10:36:37.176Z,83.20
2023-02-11T10:39:12.321Z,82.50
2023-02-11T10:41:42.616Z,82.70
2023-02-11T10:44:17.368Z,82.10
2023-02-11T10:46:46.214Z,82.20
2023-02-11T10:49:33.096Z,82.30
2023-02-11T10:52:22.888Z,82.00
2023-02-11T10:54:57.569Z,81.50
2023-02-11T10:57:29.447Z,80.80
2023-02-11T10:59:58.064Z,82.10
2023-02-11T11:02:32.184Z,82.30
2023-02-11T11:05:01.037Z,82.30
2023-02-11T11:07:33.759Z,80.70
2023-02-11T11:10:03.259Z,80.20
2023-02-11T11:12:42.509Z,80.90
2023-02-11T11:15:11.283Z,81.00
2023-02-11T11:17:40.074Z,80.40
2023-02-11T11:20:16.372Z,80.20
2023-02-11T11:22:43.787Z,81.10
2023-02-11T11:25:22.395Z,81.20
2023-02-11T11:27:50.780Z,81.20
2023-02-11T11:30:18.079Z,80.50
2023-02-11T11:32:45.215Z,79.00
2023-02-11T11:35:23.470Z,78.80
2023-02-11T11:37:55.846Z,79.40
2023-02-11T11:40:25.861Z,79.50
2023-02-11T11:43:06.228Z,79.70
2023-02-11T11:45:34.436Z,79.30
2023-02-11T11:48:04.407Z,79.00
2023-02-11T11:50:37.193Z,78.90
2023-02-11T11:53:23.872Z,79.30
2023-02-11T11:55:59.750Z,79.40
2023-02-11T11:58:30.092Z,78.90
2023-02-11T12:00:57.725Z,77.80
2023-02-11T12:03:44.168Z,77.70
2023-02-11T12:06:22.208Z,77.40
2023-02-11T12:08:49.808Z,77.10
2023-02-11T12:11:25.801Z,76.80
2023-02-11T12:13:52.972Z,76.30
2023-02-11T12:16:40.979Z,77.30
2023-02-11T12:19:21.487Z,77.60
2023-02-11T12:21:48.947Z,77.50
2023-02-11T12:24:25.033Z,76.50
2023-02-11T12:27:11.175Z,76.80
2023-02-11T12:29:55.259Z,76.60
2023-02-11T12:32:39.422Z,76.10
2023-02-11T12:35:12.371Z,76.30
2023-02-11T12:37:56.679Z,76.10
2023-02-11T12:40:42.738Z,76.40
2023-02-11T12:43:24.888Z,76.80
2023-02-11T12:46:01.260Z,77.40
2023-02-11T12:48:45.549Z,77.20
2023-02-11T12:51:12.971Z,76.50
2023-02-11T12:53:58.901Z,76.30
2023-02-11T12:56:41.354Z,76.00
2023-02-11T12:59:17.432Z,76.40
2023-02-11T13:01:48.524Z,76.40
2023-02-11T13:04:19.134Z,76.40
2023-02-11T13:06:51.600Z,76.30
2023-02-11T13:09:21.984Z,76.20
2023-02-11T13:11:52.190Z,76.30
2023-02-11T13:14:24.674Z,75.40
2023-02-11T13:16:52.745Z,75.20
2023-02-11T13:19:39.129Z,75.90
2023-02-11T13:22:11.590Z,75.50
2023-02-11T13:24:48.705Z,75.30
2023-02-11T13:27:24.937Z,75.70
2023-02-11T13:30:11.983Z,75.80
2023-02-11T13:32:54.018Z,76.30
2023-02-11T13:35:33.135Z,76.80
2023-02-11T13:38:04.728Z,77.50
2023-02-11T13:40:36.225Z,77.10
2023-02-11T13:43:04.290Z,75.80
2023-02-11T13:45:33.925Z,75.80
2023-02-11T13:48:02.566Z,76.00
2023-02-11T13:50:30.588Z,75.70
2023-02-11T13:52:59.002Z,75.60
2023-02-11T13:55:27.703Z,75.40
2023-02-11T13:58:06.408Z,75.40
2023-02-11T14:00:36.265Z,76.50
2023-02-11T14:03:30.776Z,77.00
2023-02-11T14:06:28.241Z,76.70
2023-02-11T14:09:10.171Z,76.00
2023-02-11T14:11:48.129Z,76.20
2023-02-11T14:14:19.747Z,76.20
2023-02-11T14:17:06.813Z,75.90
2023-02-11T14:19:33.731Z,75.50
2023-02-11T14:22:09.832Z,75.00
2023-02-11T14:24:36.587Z,75.00
2023-02-11T14:27:09.446Z,74.80
2023-02-11T14:29:42.479Z,74.90
2023-02-11T14:32:28.092Z,74.60
2023-02-11T14:34:54.794Z,75.00
2023-02-11T14:37:30.796Z,74.20
2023-02-11T14:40:19.156Z,73.20
2023-02-11T14:42:46.072Z,73.70
2023-02-11T14:45:18.318Z,74.50
2023-02-11T14:47:58.366Z,74.90
2023-02-11T14:50:45.504Z,74.80
2023-02-11T14:53:16.744Z,74.80
2023-02-11T14:55:45.686Z,74.70
2023-02-11T14:58:17.452Z,75.40
2023-02-11T15:00:47.834Z,75.10
2023-02-11T15:03:26.721Z,75.00
2023-02-11T15:05:55.152Z,74.90
2023-02-11T15:08:21.958Z,74.70
2023-02-11T15:10:49.110Z,74.20
2023-02-11T15:13:18.965Z,74.50
2023-02-11T15:15:46.658Z,75.40
2023-02-11T15:18:21.394Z,75.90
2023-02-11T15:20:48.783Z,75.50
2023-02-11T15:23:21.408Z,75.20
2023-02-11T15:25:53.003Z,75.50
2023-02-11T15:28:21.847Z,75.80
2023-02-11T15:30:56.176Z,76.40
2023-02-11T15:33:25.463Z,76.80
2023-02-11T15:35:52.263Z,77.10
2023-02-11T15:38:19.441Z,77.40
2023-02-11T15:40:53.840Z,77.70
2023-02-11T15:43:20.733Z,77.90
2023-02-11T15:45:56.110Z,78.10
2023-02-11T15:48:26.748Z,78.40
2023-02-11T15:50:54.923Z,78.80
2023-02-11T15:53:21.908Z,79.20
2023-02-11T15:55:53.175Z,79.10
2023-02-11T15:58:20.202Z,78.90
2023-02-11T16:00:49.543Z,78.80
2023-02-11T16:03:28.962Z,79.10
2023-02-11T16:05:56.617Z,79.20
2023-02-11T16:08:29.326Z,79.10
2023-02-11T16:11:09.083Z,79.20
2023-02-11T16:13:45.853Z,79.60
2023-02-11T16:16:20.293Z,79.80
2023-02-11T16:19:03.078Z,80.20
2023-02-11T16:21:35.059Z,80.20
2023-02-11T16:24:02.114Z,80.20
2023-02-11T16:26:34.720Z,80.30
2023-02-11T16:29:04.247Z,80.60
2023-02-11T16:31:36.124Z,81.30
2023-02-11T16:34:03.102Z,81.50
2023-02-11T16:36:30.073Z,82.10
2023-02-11T16:38:56.961Z,82.20
2023-02-11T16:41:23.956Z,82.80
2023-02-11T16:43:50.813Z,83.00
2023-02-11T16:46:17.780Z,83.30
2023-02-11T16:48:46.269Z,83.30
2023-02-11T16:51:13.270Z,83.50
2023-02-11T16:53:40.177Z,83.70
2023-02-11T16:56:07.092Z,84.10
2023-02-11T16:58:33.935Z,84.20
2023-02-11T17:01:00.901Z,84.30
2023-02-11T17:03:30.077Z,84.70
2023-02-11T17:05:57.202Z,84.60
2023-02-11T17:08:24.111Z,84.90
2023-02-11T17:10:51.168Z,84.80
2023-02-11T17:13:18.222Z,85.30
2023-02-11T17:15:45.119Z,85.30
2023-02-11T17:18:13.783Z,85.70
2023-02-11T17:20:41.534Z,85.80
2023-02-11T17:23:08.993Z,85.70
2023-02-11T17:25:37.576Z,85.90
2023-02-11T17:28:05.523Z,86.40
2023-02-11T17:30:32.828Z,86.80
2023-02-11T17:32:59.676Z,86.80
2023-02-11T17:35:26.505Z,86.60
2023-02-11T17:37:54.027Z,87.50
2023-02-11T17:40:20.881Z,87.30
2023-02-11T17:42:47.809Z,89.10
2023-02-11T17:45:14.859Z,88.00
2023-02-11T17:47:41.604Z,87.60
2023-02-11T17:50:08.701Z,87.40
2023-02-11T17:52:36.726Z,87.10
2023-02-11T17:55:04.086Z,87.00
2023-02-11T17:57:31.465Z,88.50
2023-02-11T17:59:58.294Z,89.50
2023-02-11T18:02:25.395Z,89.80
2023-02-11T18:04:52.654Z,88.90
2023-02-11T18:07:20.108Z,89.30
2023-02-11T18:09:46.920Z,88.70
2023-02-11T18:12:13.836Z,89.60
2023-02-11T18:14:41.170Z,89.40
2023-02-11T18:17:07.945Z,89.20
2023-02-11T18:19:36.814Z,90.00
2023-02-11T18:22:04.697Z,90.20
2023-02-11T18:24:31.790Z,90.00
2023-02-11T18:26:58.834Z,90.00
2023-02-11T18:29:25.808Z,90.10
2023-02-11T18:31:54.928Z,90.40
2023-02-11T18:34:21.930Z,90.50
2023-02-11T18:36:49.180Z,90.40
2023-02-11T18:39:16.614Z,90.40
2023-02-11T18:41:43.718Z,90.20
2023-02-11T18:44:11.701Z,90.50
2023-02-11T18:46:38.615Z,91.00
2023-02-11T18:49:05.492Z,90.40
2023-02-11T18:51:32.720Z,90.60
2023-02-11T18:53:59.617Z,90.80
2023-02-11T18:56:27.899Z,90.60
2023-02-11T18:58:56.314Z,90.20
2023-02-11T19:01:25.572Z,90.70
2023-02-11T19:03:52.544Z,90.70
2023-02-11T19:06:25.504Z,90.90
2023-02-11T19:08:58.919Z,90.80
2023-02-11T19:11:44.964Z,91.00
2023-02-11T19:14:11.951Z,90.70
2023-02-11T19:16:42.768Z,90.50
2023-02-11T19:19:09.897Z,90.40
2023-02-11T19:21:36.640Z,90.70
2023-02-11T19:24:07.745Z,90.60
2023-02-11T19:26:35.146Z,90.50
2023-02-11T19:29:02.223Z,90.60
2023-02-11T19:31:32.147Z,90.30
2023-02-11T19:33:59.706Z,90.50
2023-02-11T19:36:26.572Z,90.50
2023-02-11T19:38:53.332Z,90.50
2023-02-11T19:41:22.280Z,90.90
2023-02-11T19:43:52.883Z,90.50
2023-02-11T19:46:21.113Z,90.30
2023-02-11T19:48:48.398Z,90.00
2023-02-11T19:51:15.776Z,90.00
2023-02-11T19:53:43.109Z,89.80
2023-02-11T19:56:10.081Z,90.00
2023-02-11T19:58:37.582Z,90.00
2023-02-11T20:01:10.478Z,89.80
2023-02-11T20:03:37.311Z,90.00
2023-02-11T20:06:05.018Z,90.00
2023-02-11T20:08:33.196Z,89.80
2023-02-11T20:11:10.466Z,90.10
2023-02-11T20:13:37.907Z,90.10
2023-02-11T20:16:08.818Z,90.00
2023-02-11T20:18:36.634Z,90.00
2023-02-11T20:21:07.684Z,89.90
2023-02-11T20:23:34.718Z,90.00
2023-02-11T20:26:05.570Z,90.00
2023-02-11T20:28:32.563Z,90.00
2023-02-11T20:30:59.862Z,90.00
2023-02-11T20:33:28.533Z,90.00
2023-02-11T20:36:03.077Z,90.30
2023-02-11T20:38:30.136Z,90.10
2023-02-11T20:41:02.632Z,90.00
2023-02-11T20:43:29.465Z,90.10
2023-02-11T20:45:56.241Z,90.10
2023-02-11T20:48:23.053Z,90.00
2023-02-11T20:50:49.763Z,90.10
2023-02-11T20:53:16.530Z,90.10
2023-02-11T20:55:43.355Z,90.20
2023-02-11T20:58:10.096Z,90.20
2023-02-11T21:00:37.312Z,90.30
2023-02-11T21:03:04.488Z,90.40
2023-02-11T21:05:31.423Z,90.20
2023-02-11T21:07:58.185Z,90.20
2023-02-11T21:10:25.093Z,90.20
2023-02-11T21:12:51.832Z,90.20
2023-02-11T21:15:18.637Z,90.30
2023-02-11T21:17:45.523Z,90.30
2023-02-11T21:20:12.400Z,90.30
2023-02-11T21:22:39.200Z,90.20
2023-02-11T21:25:06.378Z,90.30
2023-02-11T21:27:34.382Z,90.30
2023-02-11T21:30:01.470Z,90.40
2023-02-11T21:32:28.426Z,90.20
2023-02-11T21:34:55.334Z,90.30
2023-02-11T21:37:23.271Z,90.30
2023-02-11T21:39:50.169Z,90.30
2023-02-11T21:42:16.948Z,90.40
2023-02-11T21:44:43.862Z,90.60
2023-02-11T21:47:10.647Z,90.50
2023-02-11T21:49:37.358Z,90.50
2023-02-11T21:52:04.200Z,90.70
2023-02-11T21:54:32.255Z,90.80
2023-02-11T21:56:59.780Z,90.60
2023-02-11T21:59:26.621Z,90.50
2023-02-11T22:01:53.471Z,90.60
2023-02-11T22:04:20.386Z,90.60
2023-02-11T22:06:47.324Z,90.70
2023-02-11T22:09:14.278Z,90.70
2023-02-11T22:11:41.057Z,90.80
2023-02-11T22:14:08.127Z,90.60
2023-02-11T22:16:35.173Z,90.60
2023-02-11T22:19:07.437Z,90.70
2023-02-11T22:21:34.270Z,90.60
2023-02-11T22:24:01.078Z,90.70
2023-02-11T22:26:27.868Z,90.50
2023-02-11T22:28:55.188Z,90.70
2023-02-11T22:31:24.164Z,90.70
2023-02-11T22:33:51.160Z,90.70
2023-02-11T22:36:25.787Z,90.60
2023-02-11T22:38:52.629Z,90.70
2023-02-11T22:41:20.086Z,90.90
2023-02-11T22:43:47.034Z,90.70
2023-02-11T22:46:15.465Z,90.70
2023-02-11T22:48:42.623Z,90.60
2023-02-11T22:51:10.867Z,90.70
2023-02-11T22:53:37.671Z,90.90
2023-02-11T22:56:05.463Z,90.90
2023-02-11T22:58:32.476Z,90.80
2023-02-11T23:00:59.432Z,90.90
2023-02-11T23:03:26.398Z,90.90
2023-02-11T23:05:53.567Z,90.70
2023-02-11T23:08:20.825Z,90.80
2023-02-11T23:10:47.609Z,90.90
2023-02-11T23:13:14.507Z,90.90
2023-02-11T23:15:42.202Z,91.10
2023-02-11T23:18:09.794Z,91.30
2023-02-11T23:20:38.044Z,91.20
2023-02-11T23:23:05.272Z,91.20
2023-02-11T23:25:32.739Z,91.10
2023-02-11T23:27:59.962Z,91.00
2023-02-11T23:30:27.842Z,91.30
2023-02-11T23:32:54.669Z,91.30
2023-02-11T23:35:24.903Z,91.30
2023-02-11T23:37:52.802Z,91.10
2023-02-11T23:40:20.588Z,91.10
2023-02-11T23:42:47.861Z,90.80
2023-02-11T23:45:14.995Z,90.90
2023-02-11T23:47:41.792Z,91.00
2023-02-11T23:50:09.488Z,91.00
2023-02-11T23:52:36.310Z,91.10
2023-02-11T23:55:03.083Z,90.90
2023-02-11T23:57:31.639Z,91.10
2023-02-11T23:59:58.378Z,91.10
